sensor_id;sensor_type;location;lat;lon;timestamp;P1;durP1;ratioP1;P2;durP2;ratioP2
68718;SDS011;55696;52.138;5.444;2023-08-01T00:01:42;3.88;;;2.05;;
68718;SDS011;55696;52.138;5.444;2023-08-01T00:04:09;5.47;;;2.33;;
68718;SDS011;55696;52.138;5.444;2023-08-01T00:06:35;6.38;;;2.22;;
68718;SDS011;55696;52.138;5.444;2023-08-01T00:09:02;6.18;;;2.55;;
68718;SDS011;55696;52.138;5.444;2023-08-01T00:11:29;8.40;;;2.40;;
68718;SDS011;55696;52.138;5.444;2023-08-01T00:13:56;9.25;;;2.90;;
68718;SDS011;55696;52.138;5.444;2023-08-01T00:16:23;7.07;;;2.67;;
68718;SDS011;55696;52.138;5.444;2023-08-01T00:18:50;9.38;;;3.20;;
68718;SDS011;55696;52.138;5.444;2023-08-01T00:21:17;7.13;;;3.40;;
68718;SDS011;55696;52.138;5.444;2023-08-01T00:23:43;8.20;;;3.13;;
68718;SDS011;55696;52.138;5.444;2023-08-01T00:26:10;12.27;;;5.45;;
68718;SDS011;55696;52.138;5.444;2023-08-01T00:28:37;10.43;;;4.50;;
68718;SDS011;55696;52.138;5.444;2023-08-01T00:31:05;10.10;;;3.00;;
68718;SDS011;55696;52.138;5.444;2023-08-01T00:33:33;6.00;;;3.15;;
68718;SDS011;55696;52.138;5.444;2023-08-01T00:36:00;6.60;;;2.37;;
68718;SDS011;55696;52.138;5.444;2023-08-01T00:38:27;5.40;;;2.08;;
68718;SDS011;55696;52.138;5.444;2023-08-01T00:40:54;12.18;;;2.60;;
68718;SDS011;55696;52.138;5.444;2023-08-01T00:43:21;5.05;;;2.05;;
68718;SDS011;55696;52.138;5.444;2023-08-01T00:45:48;7.75;;;2.50;;
68718;SDS011;55696;52.138;5.444;2023-08-01T00:48:15;5.73;;;2.40;;
68718;SDS011;55696;52.138;5.444;2023-08-01T00:50:43;6.45;;;2.70;;
68718;SDS011;55696;52.138;5.444;2023-08-01T00:53:10;7.90;;;2.50;;
68718;SDS011;55696;52.138;5.444;2023-08-01T00:55:38;8.55;;;2.17;;
68718;SDS011;55696;52.138;5.444;2023-08-01T00:58:06;5.13;;;2.15;;
68718;SDS011;55696;52.138;5.444;2023-08-01T01:00:32;9.80;;;2.67;;
68718;SDS011;55696;52.138;5.444;2023-08-01T01:03:00;8.43;;;2.85;;
68718;SDS011;55696;52.138;5.444;2023-08-01T01:05:29;6.75;;;2.30;;
68718;SDS011;55696;52.138;5.444;2023-08-01T01:08:02;7.53;;;2.30;;
68718;SDS011;55696;52.138;5.444;2023-08-01T01:10:30;6.72;;;2.50;;
68718;SDS011;55696;52.138;5.444;2023-08-01T01:12:58;8.63;;;2.67;;
68718;SDS011;55696;52.138;5.444;2023-08-01T01:15:25;6.93;;;2.58;;
68718;SDS011;55696;52.138;5.444;2023-08-01T01:17:53;9.32;;;3.78;;
68718;SDS011;55696;52.138;5.444;2023-08-01T01:20:23;9.07;;;2.85;;
68718;SDS011;55696;52.138;5.444;2023-08-01T01:22:51;6.32;;;2.50;;
68718;SDS011;55696;52.138;5.444;2023-08-01T01:25:20;10.03;;;2.73;;
68718;SDS011;55696;52.138;5.444;2023-08-01T01:27:49;9.68;;;2.75;;
68718;SDS011;55696;52.138;5.444;2023-08-01T01:30:18;9.52;;;3.05;;
68718;SDS011;55696;52.138;5.444;2023-08-01T01:32:46;6.20;;;2.67;;
68718;SDS011;55696;52.138;5.444;2023-08-01T01:35:13;5.88;;;3.17;;
68718;SDS011;55696;52.138;5.444;2023-08-01T01:37:39;9.00;;;3.20;;
68718;SDS011;55696;52.138;5.444;2023-08-01T01:40:06;9.10;;;2.75;;
68718;SDS011;55696;52.138;5.444;2023-08-01T01:42:34;9.77;;;2.92;;
68718;SDS011;55696;52.138;5.444;2023-08-01T01:45:01;7.30;;;2.70;;
68718;SDS011;55696;52.138;5.444;2023-08-01T01:47:27;7.35;;;3.00;;
68718;SDS011;55696;52.138;5.444;2023-08-01T01:49:54;6.50;;;2.90;;
68718;SDS011;55696;52.138;5.444;2023-08-01T01:52:21;9.52;;;3.05;;
68718;SDS011;55696;52.138;5.444;2023-08-01T01:54:48;9.20;;;3.08;;
68718;SDS011;55696;52.138;5.444;2023-08-01T01:57:15;6.82;;;2.92;;
68718;SDS011;55696;52.138;5.444;2023-08-01T01:59:42;8.95;;;3.25;;
68718;SDS011;55696;52.138;5.444;2023-08-01T02:02:09;9.50;;;3.30;;
68718;SDS011;55696;52.138;5.444;2023-08-01T02:04:35;9.75;;;3.47;;
68718;SDS011;55696;52.138;5.444;2023-08-01T02:07:02;7.35;;;3.42;;
68718;SDS011;55696;52.138;5.444;2023-08-01T02:09:29;8.50;;;3.55;;
68718;SDS011;55696;52.138;5.444;2023-08-01T02:11:56;10.35;;;3.20;;
68718;SDS011;55696;52.138;5.444;2023-08-01T02:14:23;13.37;;;3.30;;
68718;SDS011;55696;52.138;5.444;2023-08-01T02:16:50;11.85;;;4.20;;
68718;SDS011;55696;52.138;5.444;2023-08-01T02:19:16;10.90;;;3.75;;
68718;SDS011;55696;52.138;5.444;2023-08-01T02:21:43;7.88;;;3.20;;
68718;SDS011;55696;52.138;5.444;2023-08-01T02:24:10;10.88;;;3.30;;
68718;SDS011;55696;52.138;5.444;2023-08-01T02:26:37;10.53;;;3.13;;
68718;SDS011;55696;52.138;5.444;2023-08-01T02:29:04;10.05;;;3.53;;
68718;SDS011;55696;52.138;5.444;2023-08-01T02:31:31;11.18;;;3.50;;
68718;SDS011;55696;52.138;5.444;2023-08-01T02:33:58;9.85;;;3.88;;
68718;SDS011;55696;52.138;5.444;2023-08-01T02:36:25;11.77;;;3.55;;
68718;SDS011;55696;52.138;5.444;2023-08-01T02:38:52;10.80;;;4.00;;
68718;SDS011;55696;52.138;5.444;2023-08-01T02:41:18;14.90;;;4.78;;
68718;SDS011;55696;52.138;5.444;2023-08-01T02:43:45;9.63;;;3.55;;
68718;SDS011;55696;52.138;5.444;2023-08-01T02:46:12;13.23;;;3.63;;
68718;SDS011;55696;52.138;5.444;2023-08-01T02:48:39;13.75;;;3.85;;
68718;SDS011;55696;52.138;5.444;2023-08-01T02:51:06;9.00;;;3.77;;
68718;SDS011;55696;52.138;5.444;2023-08-01T02:53:35;9.23;;;2.90;;
68718;SDS011;55696;52.138;5.444;2023-08-01T02:56:03;10.10;;;3.45;;
68718;SDS011;55696;52.138;5.444;2023-08-01T02:58:32;11.13;;;3.38;;
68718;SDS011;55696;52.138;5.444;2023-08-01T03:01:00;7.35;;;3.25;;
68718;SDS011;55696;52.138;5.444;2023-08-01T03:03:27;7.63;;;3.00;;
68718;SDS011;55696;52.138;5.444;2023-08-01T03:05:54;12.80;;;3.75;;
68718;SDS011;55696;52.138;5.444;2023-08-01T03:08:21;11.10;;;3.55;;
68718;SDS011;55696;52.138;5.444;2023-08-01T03:10:49;9.88;;;2.58;;
68718;SDS011;55696;52.138;5.444;2023-08-01T03:13:16;7.60;;;2.58;;
68718;SDS011;55696;52.138;5.444;2023-08-01T03:15:43;8.27;;;2.57;;
68718;SDS011;55696;52.138;5.444;2023-08-01T03:18:10;9.48;;;2.90;;
68718;SDS011;55696;52.138;5.444;2023-08-01T03:20:37;12.10;;;2.92;;
68718;SDS011;55696;52.138;5.444;2023-08-01T03:23:04;10.63;;;2.85;;
68718;SDS011;55696;52.138;5.444;2023-08-01T03:25:30;11.40;;;2.75;;
68718;SDS011;55696;52.138;5.444;2023-08-01T03:27:58;14.00;;;3.03;;
68718;SDS011;55696;52.138;5.444;2023-08-01T03:30:26;8.52;;;2.90;;
68718;SDS011;55696;52.138;5.444;2023-08-01T03:32:54;8.50;;;2.88;;
68718;SDS011;55696;52.138;5.444;2023-08-01T03:35:20;9.88;;;2.90;;
68718;SDS011;55696;52.138;5.444;2023-08-01T03:37:47;8.32;;;2.97;;
68718;SDS011;55696;52.138;5.444;2023-08-01T03:40:14;14.37;;;4.67;;
68718;SDS011;55696;52.138;5.444;2023-08-01T03:42:41;9.32;;;3.47;;
68718;SDS011;55696;52.138;5.444;2023-08-01T03:45:08;10.98;;;3.72;;
68718;SDS011;55696;52.138;5.444;2023-08-01T03:47:36;10.23;;;3.15;;
68718;SDS011;55696;52.138;5.444;2023-08-01T03:50:03;9.27;;;3.40;;
68718;SDS011;55696;52.138;5.444;2023-08-01T03:52:30;8.87;;;3.00;;
68718;SDS011;55696;52.138;5.444;2023-08-01T03:54:57;10.25;;;3.15;;
68718;SDS011;55696;52.138;5.444;2023-08-01T03:57:24;10.15;;;3.65;;
68718;SDS011;55696;52.138;5.444;2023-08-01T03:59:50;10.13;;;3.20;;
68718;SDS011;55696;52.138;5.444;2023-08-01T04:02:17;10.13;;;3.25;;
68718;SDS011;55696;52.138;5.444;2023-08-01T04:04:45;9.60;;;3.40;;
68718;SDS011;55696;52.138;5.444;2023-08-01T04:07:11;9.05;;;3.42;;
68718;SDS011;55696;52.138;5.444;2023-08-01T04:09:38;12.80;;;3.40;;
68718;SDS011;55696;52.138;5.444;2023-08-01T04:12:05;10.77;;;3.67;;
68718;SDS011;55696;52.138;5.444;2023-08-01T04:14:33;13.10;;;3.58;;
68718;SDS011;55696;52.138;5.444;2023-08-01T04:17:00;10.20;;;3.40;;
68718;SDS011;55696;52.138;5.444;2023-08-01T04:19:27;13.35;;;3.45;;
68718;SDS011;55696;52.138;5.444;2023-08-01T04:21:54;9.50;;;3.30;;
68718;SDS011;55696;52.138;5.444;2023-08-01T04:24:20;14.30;;;3.30;;
68718;SDS011;55696;52.138;5.444;2023-08-01T04:26:51;10.32;;;3.30;;
68718;SDS011;55696;52.138;5.444;2023-08-01T04:29:19;12.67;;;3.30;;
68718;SDS011;55696;52.138;5.444;2023-08-01T04:31:45;9.25;;;3.17;;
68718;SDS011;55696;52.138;5.444;2023-08-01T04:34:12;11.55;;;3.85;;
68718;SDS011;55696;52.138;5.444;2023-08-01T04:36:39;12.23;;;3.40;;
68718;SDS011;55696;52.138;5.444;2023-08-01T04:39:06;12.27;;;4.10;;
68718;SDS011;55696;52.138;5.444;2023-08-01T04:41:33;10.23;;;3.20;;
68718;SDS011;55696;52.138;5.444;2023-08-01T04:44:00;14.98;;;4.05;;
68718;SDS011;55696;52.138;5.444;2023-08-01T04:46:27;11.65;;;3.72;;
68718;SDS011;55696;52.138;5.444;2023-08-01T04:48:53;10.63;;;3.95;;
68718;SDS011;55696;52.138;5.444;2023-08-01T04:51:20;11.27;;;3.80;;
68718;SDS011;55696;52.138;5.444;2023-08-01T04:53:47;13.50;;;4.07;;
68718;SDS011;55696;52.138;5.444;2023-08-01T04:56:14;10.82;;;4.10;;
68718;SDS011;55696;52.138;5.444;2023-08-01T04:58:41;14.20;;;4.50;;
68718;SDS011;55696;52.138;5.444;2023-08-01T05:01:08;13.57;;;4.47;;
68718;SDS011;55696;52.138;5.444;2023-08-01T05:03:35;7.70;;;3.63;;
68718;SDS011;55696;52.138;5.444;2023-08-01T05:06:02;10.13;;;3.80;;
68718;SDS011;55696;52.138;5.444;2023-08-01T05:08:29;11.82;;;4.22;;
68718;SDS011;55696;52.138;5.444;2023-08-01T05:10:55;11.20;;;4.43;;
68718;SDS011;55696;52.138;5.444;2023-08-01T05:13:22;13.45;;;4.18;;
68718;SDS011;55696;52.138;5.444;2023-08-01T05:15:49;10.10;;;3.80;;
68718;SDS011;55696;52.138;5.444;2023-08-01T05:18:16;12.20;;;3.90;;
68718;SDS011;55696;52.138;5.444;2023-08-01T05:20:43;10.40;;;4.15;;
68718;SDS011;55696;52.138;5.444;2023-08-01T05:23:10;12.75;;;3.90;;
68718;SDS011;55696;52.138;5.444;2023-08-01T05:25:37;16.25;;;4.07;;
68718;SDS011;55696;52.138;5.444;2023-08-01T05:28:04;10.32;;;4.15;;
68718;SDS011;55696;52.138;5.444;2023-08-01T05:30:31;14.20;;;4.23;;
68718;SDS011;55696;52.138;5.444;2023-08-01T05:32:58;14.18;;;4.55;;
68718;SDS011;55696;52.138;5.444;2023-08-01T05:35:25;14.43;;;4.05;;
68718;SDS011;55696;52.138;5.444;2023-08-01T05:37:51;10.48;;;3.80;;
68718;SDS011;55696;52.138;5.444;2023-08-01T05:40:18;12.60;;;3.60;;
68718;SDS011;55696;52.138;5.444;2023-08-01T05:42:45;11.33;;;3.93;;
68718;SDS011;55696;52.138;5.444;2023-08-01T05:45:12;12.48;;;3.97;;
68718;SDS011;55696;52.138;5.444;2023-08-01T05:47:39;11.73;;;3.85;;
68718;SDS011;55696;52.138;5.444;2023-08-01T05:50:07;14.82;;;3.67;;
68718;SDS011;55696;52.138;5.444;2023-08-01T05:52:34;14.65;;;3.75;;
68718;SDS011;55696;52.138;5.444;2023-08-01T05:55:01;12.33;;;3.73;;
68718;SDS011;55696;52.138;5.444;2023-08-01T05:57:28;12.23;;;3.70;;
68718;SDS011;55696;52.138;5.444;2023-08-01T05:59:56;13.23;;;4.47;;
68718;SDS011;55696;52.138;5.444;2023-08-01T06:02:23;15.75;;;4.05;;
68718;SDS011;55696;52.138;5.444;2023-08-01T06:04:49;15.57;;;3.42;;
68718;SDS011;55696;52.138;5.444;2023-08-01T06:07:16;13.53;;;4.30;;
68718;SDS011;55696;52.138;5.444;2023-08-01T06:09:49;12.32;;;4.20;;
68718;SDS011;55696;52.138;5.444;2023-08-01T06:12:19;16.33;;;3.67;;
68718;SDS011;55696;52.138;5.444;2023-08-01T06:14:46;14.07;;;3.35;;
68718;SDS011;55696;52.138;5.444;2023-08-01T06:17:14;16.98;;;4.15;;
68718;SDS011;55696;52.138;5.444;2023-08-01T06:19:41;10.80;;;3.63;;
68718;SDS011;55696;52.138;5.444;2023-08-01T06:22:08;14.80;;;3.70;;
68718;SDS011;55696;52.138;5.444;2023-08-01T06:24:35;16.77;;;3.38;;
68718;SDS011;55696;52.138;5.444;2023-08-01T06:27:02;9.13;;;3.15;;
68718;SDS011;55696;52.138;5.444;2023-08-01T06:29:29;18.70;;;4.53;;
68718;SDS011;55696;52.138;5.444;2023-08-01T06:31:56;10.83;;;3.00;;
68718;SDS011;55696;52.138;5.444;2023-08-01T06:34:23;13.60;;;2.95;;
68718;SDS011;55696;52.138;5.444;2023-08-01T06:36:51;11.43;;;2.97;;
68718;SDS011;55696;52.138;5.444;2023-08-01T06:39:18;14.25;;;3.33;;
68718;SDS011;55696;52.138;5.444;2023-08-01T06:41:45;10.10;;;3.30;;
68718;SDS011;55696;52.138;5.444;2023-08-01T06:44:12;13.60;;;2.90;;
68718;SDS011;55696;52.138;5.444;2023-08-01T06:46:38;11.77;;;3.55;;
68718;SDS011;55696;52.138;5.444;2023-08-01T06:49:06;11.30;;;3.30;;
68718;SDS011;55696;52.138;5.444;2023-08-01T06:51:32;15.20;;;3.53;;
68718;SDS011;55696;52.138;5.444;2023-08-01T06:53:59;9.27;;;2.97;;
68718;SDS011;55696;52.138;5.444;2023-08-01T06:56:26;12.63;;;2.97;;
68718;SDS011;55696;52.138;5.444;2023-08-01T06:58:53;10.70;;;3.33;;
68718;SDS011;55696;52.138;5.444;2023-08-01T07:01:20;9.27;;;3.22;;
68718;SDS011;55696;52.138;5.444;2023-08-01T07:03:48;11.68;;;2.55;;
68718;SDS011;55696;52.138;5.444;2023-08-01T07:06:17;9.63;;;2.80;;
68718;SDS011;55696;52.138;5.444;2023-08-01T07:08:44;10.60;;;2.87;;
68718;SDS011;55696;52.138;5.444;2023-08-01T07:11:11;9.05;;;2.70;;
68718;SDS011;55696;52.138;5.444;2023-08-01T07:13:38;9.25;;;2.40;;
68718;SDS011;55696;52.138;5.444;2023-08-01T07:16:05;12.70;;;3.13;;
68718;SDS011;55696;52.138;5.444;2023-08-01T07:18:32;8.88;;;3.13;;
68718;SDS011;55696;52.138;5.444;2023-08-01T07:21:00;7.93;;;2.73;;
68718;SDS011;55696;52.138;5.444;2023-08-01T07:23:27;9.35;;;2.85;;
68718;SDS011;55696;52.138;5.444;2023-08-01T07:25:54;12.70;;;2.70;;
68718;SDS011;55696;52.138;5.444;2023-08-01T07:28:21;10.48;;;2.80;;
68718;SDS011;55696;52.138;5.444;2023-08-01T07:30:48;11.93;;;2.70;;
68718;SDS011;55696;52.138;5.444;2023-08-01T07:33:23;13.87;;;2.73;;
68718;SDS011;55696;52.138;5.444;2023-08-01T07:35:50;8.23;;;2.00;;
68718;SDS011;55696;52.138;5.444;2023-08-01T07:38:17;7.53;;;2.38;;
68718;SDS011;55696;52.138;5.444;2023-08-01T07:40:43;9.52;;;2.08;;
68718;SDS011;55696;52.138;5.444;2023-08-01T07:43:10;5.93;;;1.88;;
68718;SDS011;55696;52.138;5.444;2023-08-01T07:45:37;7.13;;;2.57;;
68718;SDS011;55696;52.138;5.444;2023-08-01T07:48:04;8.00;;;2.92;;
68718;SDS011;55696;52.138;5.444;2023-08-01T07:50:31;10.93;;;2.75;;
68718;SDS011;55696;52.138;5.444;2023-08-01T07:52:58;8.43;;;2.40;;
68718;SDS011;55696;52.138;5.444;2023-08-01T07:55:25;10.15;;;2.47;;
68718;SDS011;55696;52.138;5.444;2023-08-01T07:57:51;7.67;;;2.47;;
68718;SDS011;55696;52.138;5.444;2023-08-01T08:00:18;13.60;;;2.60;;
68718;SDS011;55696;52.138;5.444;2023-08-01T08:02:45;6.95;;;3.05;;
68718;SDS011;55696;52.138;5.444;2023-08-01T08:05:12;6.63;;;2.42;;
68718;SDS011;55696;52.138;5.444;2023-08-01T08:07:39;10.45;;;2.67;;
68718;SDS011;55696;52.138;5.444;2023-08-01T08:10:06;14.77;;;3.43;;
68718;SDS011;55696;52.138;5.444;2023-08-01T08:12:33;9.43;;;2.47;;
68718;SDS011;55696;52.138;5.444;2023-08-01T08:15:00;7.10;;;2.33;;
68718;SDS011;55696;52.138;5.444;2023-08-01T08:17:27;8.07;;;2.42;;
68718;SDS011;55696;52.138;5.444;2023-08-01T08:19:54;8.88;;;2.10;;
68718;SDS011;55696;52.138;5.444;2023-08-01T08:22:21;10.67;;;2.70;;
68718;SDS011;55696;52.138;5.444;2023-08-01T08:24:48;7.03;;;2.30;;
68718;SDS011;55696;52.138;5.444;2023-08-01T08:27:15;9.00;;;2.45;;
68718;SDS011;55696;52.138;5.444;2023-08-01T08:29:42;11.38;;;3.08;;
68718;SDS011;55696;52.138;5.444;2023-08-01T08:32:08;8.23;;;2.50;;
68718;SDS011;55696;52.138;5.444;2023-08-01T08:34:35;5.10;;;1.90;;
68718;SDS011;55696;52.138;5.444;2023-08-01T08:37:02;7.75;;;2.40;;
68718;SDS011;55696;52.138;5.444;2023-08-01T08:39:29;5.50;;;1.88;;
68718;SDS011;55696;52.138;5.444;2023-08-01T08:41:56;6.03;;;1.88;;
68718;SDS011;55696;52.138;5.444;2023-08-01T08:44:23;10.88;;;2.25;;
68718;SDS011;55696;52.138;5.444;2023-08-01T08:46:58;10.40;;;2.60;;
68718;SDS011;55696;52.138;5.444;2023-08-01T08:49:32;8.40;;;1.67;;
68718;SDS011;55696;52.138;5.444;2023-08-01T08:51:58;8.50;;;1.98;;
68718;SDS011;55696;52.138;5.444;2023-08-01T08:54:26;7.90;;;1.90;;
68718;SDS011;55696;52.138;5.444;2023-08-01T08:56:53;6.22;;;1.98;;
68718;SDS011;55696;52.138;5.444;2023-08-01T08:59:21;6.80;;;2.10;;
68718;SDS011;55696;52.138;5.444;2023-08-01T09:01:51;8.63;;;2.13;;
68718;SDS011;55696;52.138;5.444;2023-08-01T09:04:18;6.53;;;2.90;;
68718;SDS011;55696;52.138;5.444;2023-08-01T09:06:45;3.53;;;1.77;;
68718;SDS011;55696;52.138;5.444;2023-08-01T09:09:17;7.50;;;1.95;;
68718;SDS011;55696;52.138;5.444;2023-08-01T09:11:45;7.93;;;2.83;;
68718;SDS011;55696;52.138;5.444;2023-08-01T09:14:14;6.85;;;1.77;;
68718;SDS011;55696;52.138;5.444;2023-08-01T09:16:41;6.65;;;2.42;;
68718;SDS011;55696;52.138;5.444;2023-08-01T09:19:09;5.15;;;2.00;;
68718;SDS011;55696;52.138;5.444;2023-08-01T09:21:39;6.53;;;2.22;;
68718;SDS011;55696;52.138;5.444;2023-08-01T09:24:09;8.53;;;2.10;;
68718;SDS011;55696;52.138;5.444;2023-08-01T09:26:40;9.40;;;2.30;;
68718;SDS011;55696;52.138;5.444;2023-08-01T09:29:08;7.82;;;2.10;;
68718;SDS011;55696;52.138;5.444;2023-08-01T09:31:36;7.32;;;1.85;;
68718;SDS011;55696;52.138;5.444;2023-08-01T09:34:04;6.22;;;2.03;;
68718;SDS011;55696;52.138;5.444;2023-08-01T09:36:33;10.47;;;2.87;;
68718;SDS011;55696;52.138;5.444;2023-08-01T09:39:01;9.32;;;2.33;;
68718;SDS011;55696;52.138;5.444;2023-08-01T09:41:30;8.40;;;2.42;;
68718;SDS011;55696;52.138;5.444;2023-08-01T09:43:57;10.43;;;2.35;;
68718;SDS011;55696;52.138;5.444;2023-08-01T09:46:24;8.27;;;1.98;;
68718;SDS011;55696;52.138;5.444;2023-08-01T09:48:51;6.13;;;1.80;;
68718;SDS011;55696;52.138;5.444;2023-08-01T09:51:18;7.75;;;2.00;;
68718;SDS011;55696;52.138;5.444;2023-08-01T09:53:52;11.68;;;3.40;;
68718;SDS011;55696;52.138;5.444;2023-08-01T09:56:23;10.25;;;2.33;;
68718;SDS011;55696;52.138;5.444;2023-08-01T09:58:54;8.35;;;2.47;;
68718;SDS011;55696;52.138;5.444;2023-08-01T10:01:23;6.63;;;1.90;;
68718;SDS011;55696;52.138;5.444;2023-08-01T10:03:51;8.77;;;2.50;;
68718;SDS011;55696;52.138;5.444;2023-08-01T10:06:20;5.90;;;2.10;;
68718;SDS011;55696;52.138;5.444;2023-08-01T10:08:48;9.45;;;2.15;;
68718;SDS011;55696;52.138;5.444;2023-08-01T10:11:17;9.10;;;2.60;;
68718;SDS011;55696;52.138;5.444;2023-08-01T10:13:46;13.30;;;2.73;;
68718;SDS011;55696;52.138;5.444;2023-08-01T10:16:14;7.45;;;2.05;;
68718;SDS011;55696;52.138;5.444;2023-08-01T10:18:42;5.30;;;1.98;;
68718;SDS011;55696;52.138;5.444;2023-08-01T10:21:16;11.40;;;2.08;;
68718;SDS011;55696;52.138;5.444;2023-08-01T10:23:44;7.43;;;2.00;;
68718;SDS011;55696;52.138;5.444;2023-08-01T10:26:12;6.97;;;1.80;;
68718;SDS011;55696;52.138;5.444;2023-08-01T10:28:40;6.93;;;2.25;;
68718;SDS011;55696;52.138;5.444;2023-08-01T10:31:15;8.82;;;2.50;;
68718;SDS011;55696;52.138;5.444;2023-08-01T10:33:44;6.03;;;1.83;;
68718;SDS011;55696;52.138;5.444;2023-08-01T10:38:50;6.17;;;1.67;;
68718;SDS011;55696;52.138;5.444;2023-08-01T10:44:14;6.93;;;2.10;;
68718;SDS011;55696;52.138;5.444;2023-08-01T10:46:48;6.50;;;1.95;;
68718;SDS011;55696;52.138;5.444;2023-08-01T10:49:17;8.90;;;2.03;;
68718;SDS011;55696;52.138;5.444;2023-08-01T10:51:45;5.73;;;1.77;;
68718;SDS011;55696;52.138;5.444;2023-08-01T10:54:22;5.45;;;2.10;;
68718;SDS011;55696;52.138;5.444;2023-08-01T10:56:52;9.55;;;2.20;;
68718;SDS011;55696;52.138;5.444;2023-08-01T10:59:24;6.93;;;2.10;;
68718;SDS011;55696;52.138;5.444;2023-08-01T11:01:52;5.80;;;2.30;;
68718;SDS011;55696;52.138;5.444;2023-08-01T11:04:21;6.77;;;1.83;;
68718;SDS011;55696;52.138;5.444;2023-08-01T11:06:52;4.30;;;1.83;;
68718;SDS011;55696;52.138;5.444;2023-08-01T11:09:22;3.70;;;1.30;;
68718;SDS011;55696;52.138;5.444;2023-08-01T11:11:57;4.65;;;1.65;;
68718;SDS011;55696;52.138;5.444;2023-08-01T11:14:25;10.68;;;1.70;;
68718;SDS011;55696;52.138;5.444;2023-08-01T11:16:54;5.20;;;1.53;;
68718;SDS011;55696;52.138;5.444;2023-08-01T11:19:26;6.38;;;1.88;;
68718;SDS011;55696;52.138;5.444;2023-08-01T11:21:54;6.35;;;1.85;;
68718;SDS011;55696;52.138;5.444;2023-08-01T11:24:26;5.53;;;1.73;;
68718;SDS011;55696;52.138;5.444;2023-08-01T11:26:53;7.75;;;1.95;;
68718;SDS011;55696;52.138;5.444;2023-08-01T11:29:20;3.57;;;1.67;;
68718;SDS011;55696;52.138;5.444;2023-08-01T11:31:54;5.82;;;1.90;;
68718;SDS011;55696;52.138;5.444;2023-08-01T11:34:23;7.97;;;1.80;;
68718;SDS011;55696;52.138;5.444;2023-08-01T11:36:50;5.95;;;1.48;;
68718;SDS011;55696;52.138;5.444;2023-08-01T11:39:18;6.50;;;1.70;;
68718;SDS011;55696;52.138;5.444;2023-08-01T11:41:45;5.33;;;1.50;;
68718;SDS011;55696;52.138;5.444;2023-08-01T11:44:12;6.22;;;1.80;;
68718;SDS011;55696;52.138;5.444;2023-08-01T11:46:38;8.38;;;1.75;;
68718;SDS011;55696;52.138;5.444;2023-08-01T11:49:06;5.32;;;1.63;;
68718;SDS011;55696;52.138;5.444;2023-08-01T11:51:40;5.38;;;1.80;;
68718;SDS011;55696;52.138;5.444;2023-08-01T11:54:08;6.57;;;2.00;;
68718;SDS011;55696;52.138;5.444;2023-08-01T11:56:37;7.93;;;2.35;;
68718;SDS011;55696;52.138;5.444;2023-08-01T11:59:09;6.30;;;1.98;;
68718;SDS011;55696;52.138;5.444;2023-08-01T12:01:40;5.47;;;1.73;;
68718;SDS011;55696;52.138;5.444;2023-08-01T12:04:08;8.10;;;1.95;;
68718;SDS011;55696;52.138;5.444;2023-08-01T12:06:35;7.17;;;2.00;;
68718;SDS011;55696;52.138;5.444;2023-08-01T12:09:09;6.25;;;1.85;;
68718;SDS011;55696;52.138;5.444;2023-08-01T12:11:38;4.93;;;1.75;;
68718;SDS011;55696;52.138;5.444;2023-08-01T12:14:07;6.65;;;1.60;;
68718;SDS011;55696;52.138;5.444;2023-08-01T12:16:36;5.47;;;1.90;;
68718;SDS011;55696;52.138;5.444;2023-08-01T12:19:05;5.80;;;1.60;;
68718;SDS011;55696;52.138;5.444;2023-08-01T12:21:32;6.03;;;1.60;;
68718;SDS011;55696;52.138;5.444;2023-08-01T12:24:00;5.05;;;1.42;;
68718;SDS011;55696;52.138;5.444;2023-08-01T12:26:27;5.45;;;1.50;;
68718;SDS011;55696;52.138;5.444;2023-08-01T12:28:54;10.93;;;2.08;;
68718;SDS011;55696;52.138;5.444;2023-08-01T12:31:22;8.53;;;1.87;;
68718;SDS011;55696;52.138;5.444;2023-08-01T12:33:49;8.27;;;2.10;;
68718;SDS011;55696;52.138;5.444;2023-08-01T12:36:16;8.18;;;1.83;;
68718;SDS011;55696;52.138;5.444;2023-08-01T12:38:43;7.70;;;1.85;;
68718;SDS011;55696;52.138;5.444;2023-08-01T12:41:10;10.98;;;1.92;;
68718;SDS011;55696;52.138;5.444;2023-08-01T12:43:37;8.67;;;1.73;;
68718;SDS011;55696;52.138;5.444;2023-08-01T12:46:04;6.03;;;1.83;;
68718;SDS011;55696;52.138;5.444;2023-08-01T12:48:30;7.30;;;1.77;;
68718;SDS011;55696;52.138;5.444;2023-08-01T12:50:57;7.30;;;1.90;;
68718;SDS011;55696;52.138;5.444;2023-08-01T12:53:24;6.60;;;1.70;;
68718;SDS011;55696;52.138;5.444;2023-08-01T12:55:56;15.57;;;3.40;;
68718;SDS011;55696;52.138;5.444;2023-08-01T12:58:23;8.48;;;2.00;;
68718;SDS011;55696;52.138;5.444;2023-08-01T13:00:49;7.97;;;2.17;;
68718;SDS011;55696;52.138;5.444;2023-08-01T13:03:16;7.45;;;1.50;;
68718;SDS011;55696;52.138;5.444;2023-08-01T13:05:43;4.47;;;1.65;;
68718;SDS011;55696;52.138;5.444;2023-08-01T13:08:10;6.13;;;1.77;;
68718;SDS011;55696;52.138;5.444;2023-08-01T13:10:37;4.55;;;1.60;;
68718;SDS011;55696;52.138;5.444;2023-08-01T13:13:05;6.90;;;1.50;;
68718;SDS011;55696;52.138;5.444;2023-08-01T13:15:32;5.70;;;1.58;;
68718;SDS011;55696;52.138;5.444;2023-08-01T13:17:58;6.00;;;1.65;;
68718;SDS011;55696;52.138;5.444;2023-08-01T13:20:25;6.63;;;2.23;;
68718;SDS011;55696;52.138;5.444;2023-08-01T13:22:56;4.93;;;1.63;;
68718;SDS011;55696;52.138;5.444;2023-08-01T13:25:22;8.32;;;2.00;;
68718;SDS011;55696;52.138;5.444;2023-08-01T13:27:49;5.25;;;1.88;;
68718;SDS011;55696;52.138;5.444;2023-08-01T13:30:16;5.72;;;1.70;;
68718;SDS011;55696;52.138;5.444;2023-08-01T13:32:45;12.20;;;1.97;;
68718;SDS011;55696;52.138;5.444;2023-08-01T13:35:13;7.05;;;2.05;;
68718;SDS011;55696;52.138;5.444;2023-08-01T13:37:40;5.88;;;2.22;;
68718;SDS011;55696;52.138;5.444;2023-08-01T13:40:07;10.30;;;2.63;;
68718;SDS011;55696;52.138;5.444;2023-08-01T13:42:36;7.65;;;2.50;;
68718;SDS011;55696;52.138;5.444;2023-08-01T13:45:03;8.27;;;2.17;;
68718;SDS011;55696;52.138;5.444;2023-08-01T13:47:30;6.70;;;1.92;;
68718;SDS011;55696;52.138;5.444;2023-08-01T13:49:57;8.73;;;2.20;;
68718;SDS011;55696;52.138;5.444;2023-08-01T13:52:24;10.30;;;2.22;;
68718;SDS011;55696;52.138;5.444;2023-08-01T13:54:51;11.98;;;3.03;;
68718;SDS011;55696;52.138;5.444;2023-08-01T13:57:18;5.87;;;1.90;;
68718;SDS011;55696;52.138;5.444;2023-08-01T13:59:45;7.47;;;2.20;;
68718;SDS011;55696;52.138;5.444;2023-08-01T14:02:36;5.22;;;1.70;;
68718;SDS011;55696;52.138;5.444;2023-08-01T14:05:03;10.50;;;1.80;;
68718;SDS011;55696;52.138;5.444;2023-08-01T14:07:30;6.82;;;1.83;;
68718;SDS011;55696;52.138;5.444;2023-08-01T14:09:57;5.17;;;1.20;;
68718;SDS011;55696;52.138;5.444;2023-08-01T14:12:24;6.47;;;1.63;;
68718;SDS011;55696;52.138;5.444;2023-08-01T14:14:52;6.63;;;1.88;;
68718;SDS011;55696;52.138;5.444;2023-08-01T14:17:19;7.60;;;1.98;;
68718;SDS011;55696;52.138;5.444;2023-08-01T14:19:46;6.32;;;1.50;;
68718;SDS011;55696;52.138;5.444;2023-08-01T14:22:13;5.87;;;2.00;;
68718;SDS011;55696;52.138;5.444;2023-08-01T14:24:39;7.82;;;2.08;;
68718;SDS011;55696;52.138;5.444;2023-08-01T14:27:08;12.13;;;1.77;;
68718;SDS011;55696;52.138;5.444;2023-08-01T14:29:35;7.05;;;1.77;;
68718;SDS011;55696;52.138;5.444;2023-08-01T14:32:02;6.38;;;2.08;;
68718;SDS011;55696;52.138;5.444;2023-08-01T14:34:29;7.27;;;2.23;;
68718;SDS011;55696;52.138;5.444;2023-08-01T14:36:56;11.88;;;2.10;;
68718;SDS011;55696;52.138;5.444;2023-08-01T14:39:23;6.00;;;1.58;;
68718;SDS011;55696;52.138;5.444;2023-08-01T14:41:50;9.38;;;2.17;;
68718;SDS011;55696;52.138;5.444;2023-08-01T14:44:30;8.00;;;1.70;;
68718;SDS011;55696;52.138;5.444;2023-08-01T14:46:57;7.40;;;1.90;;
68718;SDS011;55696;52.138;5.444;2023-08-01T14:49:24;5.25;;;1.55;;
68718;SDS011;55696;52.138;5.444;2023-08-01T14:51:53;5.93;;;2.00;;